Impacts METAR Board
IDs:

KSFO - San Francisco Intl, CA, US

Updated at: 2100 UTC 20 Jun 2019
Potential Impact None Slight Moderate High
Time 20/09Z 20/10Z 20/11Z 20/12Z 20/13Z 20/14Z 20/15Z 20/16Z 20/17Z 20/18Z 20/19Z 20/20Z 20/21Z
Temp58 58 58 59 58 59 61 61 65 68 68 69 71
Dewpt53 52 52 52 52 52 52 53 53 54 56 56 53
Altim29.89 29.89 29.88 29.88 29.88 29.90 29.90 29.91 29.90 29.89 29.90 29.89 29.88
VIS10 10 10 10 10 10 10 10 10 10 10 10 10
CIG-- -- -- -- -- -- -- -- -- -- -- -- --
CoverFEWFEWFEWFEWFEWFEWSCTFEWFEWFEWFEWFEWFEW
FltCatVFRVFRVFRVFRVFRVFRVFRVFRVFRVFRVFRVFRVFR
WX--------------------------
WDir150170170170160170170190140502030240
WSpd5 8 7 8 9 8 8 8 5 6 7 5 5
WGst-- -- -- -- -- -- -- -- -- -- -- -- --
Raw hourly METARs
KSFO 200856Z 15005KT 10SM FEW006 FEW011 14/12 A2989 RMK AO2 SLP123 T01440117 58006
KSFO 200956Z 17008KT 10SM FEW006 FEW013 14/11 A2989 RMK AO2 SLP120 T01440111
KSFO 201056Z 17007KT 10SM FEW006 FEW013 14/11 A2988 RMK AO2 SLP117 T01440111
KSFO 201156Z 17008KT 10SM FEW006 FEW015 15/11 A2988 RMK AO2 SLP119 T01500111 10156 20144 55004
KSFO 201256Z 16009KT 10SM FEW009 FEW014 14/11 A2988 RMK AO2 SLP119 T01440111
KSFO 201356Z 17008KT 10SM FEW008 FEW015 15/11 A2990 RMK AO2 SLP124 T01500111
KSFO 201456Z 17008KT 10SM FEW008 SCT014 16/11 A2990 RMK AO2 SLP126 T01610111 53007
KSFO 201556Z 19008KT 10SM FEW009 FEW020 16/12 A2991 RMK AO2 SLP128 T01610117
KSFO 201656Z 14005KT 10SM FEW009 FEW030 18/12 A2990 RMK AO2 SLP124 T01830117
KSFO 201756Z 05006KT 10SM FEW010 FEW030 20/12 A2989 RMK AO2 SLP123 T02000122 10200 20139 58003
KSFO 201856Z 02007KT 10SM FEW010 FEW035 20/13 A2990 RMK AO2 SLP124 T02000133
KSFO 201956Z 03005KT 10SM FEW010 FEW035 21/13 A2989 RMK AO2 SLP122 T02060133
KSFO 202056Z 24005KT 10SM FEW010 22/12 A2988 RMK AO2 SLP117 T02170117 58006



Page loaded:  21:06 UTC  |   02:06 PM Pacific  |   03:06 PM Mountain  |   04:06 PM Central  |   05:06 PM Eastern

 

ADVISORIES

FORECASTS

FORECASTS

OBSERVATIONS

USER TOOLS

ABOUT US